sensor_id;sensor_type;location;lat;lon;timestamp;P1;durP1;ratioP1;P2;durP2;ratioP2
71916;SDS011;59793;46.506;6.674;2023-07-29T00:01:17;9.67;;;3.50;;
71916;SDS011;59793;46.506;6.674;2023-07-29T00:03:43;14.23;;;5.47;;
71916;SDS011;59793;46.506;6.674;2023-07-29T00:06:09;5.97;;;2.57;;
71916;SDS011;59793;46.506;6.674;2023-07-29T00:08:34;5.15;;;2.75;;
71916;SDS011;59793;46.506;6.674;2023-07-29T00:11:00;5.37;;;3.27;;
71916;SDS011;59793;46.506;6.674;2023-07-29T00:13:25;5.67;;;3.87;;
71916;SDS011;59793;46.506;6.674;2023-07-29T00:15:52;5.40;;;3.20;;
71916;SDS011;59793;46.506;6.674;2023-07-29T00:18:18;5.50;;;2.90;;
71916;SDS011;59793;46.506;6.674;2023-07-29T00:20:44;7.50;;;4.07;;
71916;SDS011;59793;46.506;6.674;2023-07-29T00:23:09;7.07;;;3.50;;
71916;SDS011;59793;46.506;6.674;2023-07-29T00:25:34;8.00;;;4.20;;
71916;SDS011;59793;46.506;6.674;2023-07-29T00:28:00;5.82;;;3.53;;
71916;SDS011;59793;46.506;6.674;2023-07-29T00:30:25;5.47;;;3.70;;
71916;SDS011;59793;46.506;6.674;2023-07-29T00:32:51;13.50;;;4.20;;
71916;SDS011;59793;46.506;6.674;2023-07-29T00:35:16;9.33;;;4.43;;
71916;SDS011;59793;46.506;6.674;2023-07-29T00:37:41;6.10;;;3.60;;
71916;SDS011;59793;46.506;6.674;2023-07-29T00:40:13;6.63;;;4.33;;
71916;SDS011;59793;46.506;6.674;2023-07-29T00:42:42;5.65;;;3.70;;
71916;SDS011;59793;46.506;6.674;2023-07-29T00:45:08;5.83;;;4.13;;
71916;SDS011;59793;46.506;6.674;2023-07-29T00:49:59;6.63;;;4.00;;
71916;SDS011;59793;46.506;6.674;2023-07-29T00:52:24;8.40;;;3.97;;
71916;SDS011;59793;46.506;6.674;2023-07-29T00:54:50;6.53;;;4.17;;
71916;SDS011;59793;46.506;6.674;2023-07-29T00:57:15;5.67;;;3.80;;
71916;SDS011;59793;46.506;6.674;2023-07-29T00:59:42;5.45;;;3.83;;
71916;SDS011;59793;46.506;6.674;2023-07-29T01:02:08;5.30;;;3.13;;
71916;SDS011;59793;46.506;6.674;2023-07-29T01:04:33;9.10;;;4.17;;
71916;SDS011;59793;46.506;6.674;2023-07-29T01:07:03;5.50;;;4.30;;
71916;SDS011;59793;46.506;6.674;2023-07-29T01:09:48;4.78;;;3.47;;
71916;SDS011;59793;46.506;6.674;2023-07-29T01:12:22;4.88;;;3.40;;
71916;SDS011;59793;46.506;6.674;2023-07-29T01:17:55;4.97;;;3.95;;
71916;SDS011;59793;46.506;6.674;2023-07-29T01:20:24;6.65;;;4.32;;
71916;SDS011;59793;46.506;6.674;2023-07-29T01:22:50;4.32;;;3.30;;
71916;SDS011;59793;46.506;6.674;2023-07-29T01:25:16;9.47;;;4.40;;
71916;SDS011;59793;46.506;6.674;2023-07-29T01:27:45;4.60;;;3.67;;
71916;SDS011;59793;46.506;6.674;2023-07-29T01:30:12;6.50;;;4.28;;
71916;SDS011;59793;46.506;6.674;2023-07-29T01:35:13;7.30;;;4.15;;
71916;SDS011;59793;46.506;6.674;2023-07-29T01:37:44;6.43;;;4.28;;
71916;SDS011;59793;46.506;6.674;2023-07-29T01:40:16;7.68;;;4.50;;
71916;SDS011;59793;46.506;6.674;2023-07-29T01:42:43;5.13;;;3.47;;
71916;SDS011;59793;46.506;6.674;2023-07-29T01:45:10;5.05;;;3.90;;
71916;SDS011;59793;46.506;6.674;2023-07-29T01:47:35;7.17;;;3.43;;
71916;SDS011;59793;46.506;6.674;2023-07-29T01:50:01;6.30;;;4.10;;
71916;SDS011;59793;46.506;6.674;2023-07-29T01:52:28;7.70;;;3.83;;
71916;SDS011;59793;46.506;6.674;2023-07-29T01:54:53;6.60;;;4.57;;
71916;SDS011;59793;46.506;6.674;2023-07-29T01:57:19;11.97;;;4.60;;
71916;SDS011;59793;46.506;6.674;2023-07-29T01:59:44;7.43;;;3.87;;
71916;SDS011;59793;46.506;6.674;2023-07-29T02:02:09;7.53;;;4.50;;
71916;SDS011;59793;46.506;6.674;2023-07-29T02:04:36;5.90;;;4.57;;
71916;SDS011;59793;46.506;6.674;2023-07-29T02:07:02;4.95;;;4.13;;
71916;SDS011;59793;46.506;6.674;2023-07-29T02:09:27;7.77;;;4.27;;
71916;SDS011;59793;46.506;6.674;2023-07-29T02:11:52;6.60;;;4.07;;
71916;SDS011;59793;46.506;6.674;2023-07-29T02:14:17;6.53;;;4.43;;
71916;SDS011;59793;46.506;6.674;2023-07-29T02:16:43;6.67;;;4.23;;
71916;SDS011;59793;46.506;6.674;2023-07-29T02:19:08;5.60;;;4.00;;
71916;SDS011;59793;46.506;6.674;2023-07-29T02:21:33;4.73;;;3.43;;
71916;SDS011;59793;46.506;6.674;2023-07-29T02:23:59;5.83;;;3.83;;
71916;SDS011;59793;46.506;6.674;2023-07-29T02:26:24;5.33;;;3.70;;
71916;SDS011;59793;46.506;6.674;2023-07-29T02:28:50;11.37;;;5.10;;
71916;SDS011;59793;46.506;6.674;2023-07-29T02:31:16;4.70;;;4.20;;
71916;SDS011;59793;46.506;6.674;2023-07-29T02:33:43;7.15;;;4.18;;
71916;SDS011;59793;46.506;6.674;2023-07-29T02:36:09;6.55;;;4.57;;
71916;SDS011;59793;46.506;6.674;2023-07-29T02:38:34;6.33;;;4.87;;
71916;SDS011;59793;46.506;6.674;2023-07-29T02:41:00;5.60;;;4.20;;
71916;SDS011;59793;46.506;6.674;2023-07-29T02:43:25;7.50;;;4.47;;
71916;SDS011;59793;46.506;6.674;2023-07-29T02:45:50;6.97;;;4.47;;
71916;SDS011;59793;46.506;6.674;2023-07-29T02:48:16;7.30;;;4.63;;
71916;SDS011;59793;46.506;6.674;2023-07-29T02:50:41;8.53;;;4.73;;
71916;SDS011;59793;46.506;6.674;2023-07-29T02:53:06;6.10;;;4.63;;
71916;SDS011;59793;46.506;6.674;2023-07-29T02:55:32;9.30;;;4.77;;
71916;SDS011;59793;46.506;6.674;2023-07-29T02:57:57;6.70;;;4.83;;
71916;SDS011;59793;46.506;6.674;2023-07-29T03:00:22;9.90;;;4.93;;
71916;SDS011;59793;46.506;6.674;2023-07-29T03:02:47;8.17;;;4.80;;
71916;SDS011;59793;46.506;6.674;2023-07-29T03:05:14;8.90;;;5.10;;
71916;SDS011;59793;46.506;6.674;2023-07-29T03:07:40;9.63;;;5.20;;
71916;SDS011;59793;46.506;6.674;2023-07-29T03:10:05;5.33;;;4.53;;
71916;SDS011;59793;46.506;6.674;2023-07-29T03:12:31;8.18;;;4.65;;
71916;SDS011;59793;46.506;6.674;2023-07-29T03:14:56;8.17;;;5.07;;
71916;SDS011;59793;46.506;6.674;2023-07-29T03:17:22;6.93;;;5.47;;
71916;SDS011;59793;46.506;6.674;2023-07-29T03:19:47;6.93;;;4.57;;
71916;SDS011;59793;46.506;6.674;2023-07-29T03:22:12;7.07;;;4.30;;
71916;SDS011;59793;46.506;6.674;2023-07-29T03:24:37;6.13;;;4.73;;
71916;SDS011;59793;46.506;6.674;2023-07-29T03:27:03;6.87;;;5.10;;
71916;SDS011;59793;46.506;6.674;2023-07-29T03:29:28;6.87;;;5.23;;
71916;SDS011;59793;46.506;6.674;2023-07-29T03:31:54;8.60;;;4.60;;
71916;SDS011;59793;46.506;6.674;2023-07-29T03:34:20;5.03;;;4.10;;
71916;SDS011;59793;46.506;6.674;2023-07-29T03:36:45;7.17;;;4.80;;
71916;SDS011;59793;46.506;6.674;2023-07-29T03:39:12;8.50;;;4.75;;
71916;SDS011;59793;46.506;6.674;2023-07-29T03:41:38;7.43;;;4.90;;
71916;SDS011;59793;46.506;6.674;2023-07-29T03:44:03;6.50;;;4.33;;
71916;SDS011;59793;46.506;6.674;2023-07-29T03:46:29;10.20;;;5.80;;
71916;SDS011;59793;46.506;6.674;2023-07-29T03:48:54;7.93;;;5.17;;
71916;SDS011;59793;46.506;6.674;2023-07-29T03:51:19;6.73;;;4.43;;
71916;SDS011;59793;46.506;6.674;2023-07-29T03:53:45;6.53;;;4.10;;
71916;SDS011;59793;46.506;6.674;2023-07-29T03:56:11;7.93;;;4.80;;
71916;SDS011;59793;46.506;6.674;2023-07-29T03:58:36;6.27;;;4.00;;
71916;SDS011;59793;46.506;6.674;2023-07-29T04:01:01;7.83;;;4.63;;
71916;SDS011;59793;46.506;6.674;2023-07-29T04:03:27;6.30;;;4.73;;
71916;SDS011;59793;46.506;6.674;2023-07-29T04:05:52;7.23;;;5.07;;
71916;SDS011;59793;46.506;6.674;2023-07-29T04:08:18;7.80;;;4.27;;
71916;SDS011;59793;46.506;6.674;2023-07-29T04:10:43;8.85;;;5.25;;
71916;SDS011;59793;46.506;6.674;2023-07-29T04:13:09;6.50;;;4.37;;
71916;SDS011;59793;46.506;6.674;2023-07-29T04:15:34;6.47;;;4.83;;
71916;SDS011;59793;46.506;6.674;2023-07-29T04:17:59;6.77;;;5.17;;
71916;SDS011;59793;46.506;6.674;2023-07-29T04:20:25;7.40;;;4.73;;
71916;SDS011;59793;46.506;6.674;2023-07-29T04:22:50;7.17;;;5.20;;
71916;SDS011;59793;46.506;6.674;2023-07-29T04:25:15;5.97;;;4.43;;
71916;SDS011;59793;46.506;6.674;2023-07-29T04:27:41;5.63;;;5.10;;
71916;SDS011;59793;46.506;6.674;2023-07-29T04:30:06;7.47;;;5.03;;
71916;SDS011;59793;46.506;6.674;2023-07-29T04:32:32;10.30;;;5.93;;
71916;SDS011;59793;46.506;6.674;2023-07-29T04:34:57;7.73;;;5.03;;
71916;SDS011;59793;46.506;6.674;2023-07-29T04:37:22;7.87;;;5.23;;
71916;SDS011;59793;46.506;6.674;2023-07-29T04:39:48;5.97;;;5.00;;
71916;SDS011;59793;46.506;6.674;2023-07-29T04:42:13;9.40;;;5.60;;
71916;SDS011;59793;46.506;6.674;2023-07-29T04:44:38;10.80;;;5.37;;
71916;SDS011;59793;46.506;6.674;2023-07-29T04:47:04;7.93;;;5.30;;
71916;SDS011;59793;46.506;6.674;2023-07-29T04:49:29;8.63;;;5.37;;
71916;SDS011;59793;46.506;6.674;2023-07-29T04:51:54;8.10;;;4.90;;
71916;SDS011;59793;46.506;6.674;2023-07-29T04:54:20;6.57;;;4.77;;
71916;SDS011;59793;46.506;6.674;2023-07-29T04:56:46;7.63;;;4.90;;
71916;SDS011;59793;46.506;6.674;2023-07-29T04:59:11;5.20;;;3.87;;
71916;SDS011;59793;46.506;6.674;2023-07-29T05:01:38;6.75;;;4.75;;
71916;SDS011;59793;46.506;6.674;2023-07-29T05:04:03;8.33;;;5.00;;
71916;SDS011;59793;46.506;6.674;2023-07-29T05:06:29;8.03;;;5.23;;
71916;SDS011;59793;46.506;6.674;2023-07-29T05:08:54;6.50;;;4.13;;
71916;SDS011;59793;46.506;6.674;2023-07-29T05:11:19;6.20;;;4.80;;
71916;SDS011;59793;46.506;6.674;2023-07-29T05:13:45;7.47;;;5.17;;
71916;SDS011;59793;46.506;6.674;2023-07-29T05:16:10;13.07;;;5.17;;
71916;SDS011;59793;46.506;6.674;2023-07-29T05:18:35;6.50;;;4.53;;
71916;SDS011;59793;46.506;6.674;2023-07-29T05:21:00;9.83;;;4.63;;
71916;SDS011;59793;46.506;6.674;2023-07-29T05:23:26;10.57;;;4.80;;
71916;SDS011;59793;46.506;6.674;2023-07-29T05:25:51;7.53;;;4.70;;
71916;SDS011;59793;46.506;6.674;2023-07-29T05:28:16;7.83;;;4.73;;
71916;SDS011;59793;46.506;6.674;2023-07-29T05:30:43;8.33;;;4.80;;
71916;SDS011;59793;46.506;6.674;2023-07-29T05:33:09;6.30;;;4.60;;
71916;SDS011;59793;46.506;6.674;2023-07-29T05:35:34;6.23;;;4.33;;
71916;SDS011;59793;46.506;6.674;2023-07-29T05:37:59;5.60;;;4.33;;
71916;SDS011;59793;46.506;6.674;2023-07-29T05:40:25;5.17;;;4.17;;
71916;SDS011;59793;46.506;6.674;2023-07-29T05:42:50;7.67;;;4.83;;
71916;SDS011;59793;46.506;6.674;2023-07-29T05:45:15;9.57;;;4.40;;
71916;SDS011;59793;46.506;6.674;2023-07-29T05:47:41;5.83;;;4.27;;
71916;SDS011;59793;46.506;6.674;2023-07-29T05:50:06;6.13;;;4.57;;
71916;SDS011;59793;46.506;6.674;2023-07-29T05:52:32;8.02;;;5.60;;
71916;SDS011;59793;46.506;6.674;2023-07-29T05:54:58;6.30;;;4.43;;
71916;SDS011;59793;46.506;6.674;2023-07-29T05:57:23;5.60;;;4.30;;
71916;SDS011;59793;46.506;6.674;2023-07-29T05:59:49;5.43;;;4.33;;
71916;SDS011;59793;46.506;6.674;2023-07-29T06:02:14;6.93;;;3.97;;
71916;SDS011;59793;46.506;6.674;2023-07-29T06:04:39;7.73;;;4.03;;
71916;SDS011;59793;46.506;6.674;2023-07-29T06:07:05;7.23;;;4.60;;
71916;SDS011;59793;46.506;6.674;2023-07-29T06:09:31;10.75;;;4.57;;
71916;SDS011;59793;46.506;6.674;2023-07-29T06:11:56;5.73;;;4.53;;
71916;SDS011;59793;46.506;6.674;2023-07-29T06:14:21;9.10;;;5.30;;
71916;SDS011;59793;46.506;6.674;2023-07-29T06:16:47;7.07;;;4.83;;
71916;SDS011;59793;46.506;6.674;2023-07-29T06:19:12;5.63;;;3.77;;
71916;SDS011;59793;46.506;6.674;2023-07-29T06:21:38;8.02;;;4.13;;
71916;SDS011;59793;46.506;6.674;2023-07-29T06:24:03;10.00;;;4.37;;
71916;SDS011;59793;46.506;6.674;2023-07-29T06:26:29;8.27;;;4.88;;
71916;SDS011;59793;46.506;6.674;2023-07-29T06:28:54;7.27;;;4.50;;
71916;SDS011;59793;46.506;6.674;2023-07-29T06:31:19;8.77;;;5.00;;
71916;SDS011;59793;46.506;6.674;2023-07-29T06:33:45;7.10;;;4.53;;
71916;SDS011;59793;46.506;6.674;2023-07-29T06:36:11;6.60;;;4.15;;
71916;SDS011;59793;46.506;6.674;2023-07-29T06:38:37;6.80;;;4.10;;
71916;SDS011;59793;46.506;6.674;2023-07-29T06:41:03;8.98;;;4.70;;
71916;SDS011;59793;46.506;6.674;2023-07-29T06:43:29;11.63;;;5.28;;
71916;SDS011;59793;46.506;6.674;2023-07-29T06:45:54;5.83;;;4.40;;
71916;SDS011;59793;46.506;6.674;2023-07-29T06:48:20;8.30;;;5.53;;
71916;SDS011;59793;46.506;6.674;2023-07-29T06:50:45;6.73;;;4.33;;
71916;SDS011;59793;46.506;6.674;2023-07-29T06:53:11;6.67;;;4.00;;
71916;SDS011;59793;46.506;6.674;2023-07-29T06:55:36;5.50;;;3.85;;
71916;SDS011;59793;46.506;6.674;2023-07-29T06:58:02;6.20;;;3.90;;
71916;SDS011;59793;46.506;6.674;2023-07-29T07:00:27;6.67;;;4.10;;
71916;SDS011;59793;46.506;6.674;2023-07-29T07:02:53;6.43;;;4.23;;
71916;SDS011;59793;46.506;6.674;2023-07-29T07:05:18;7.73;;;3.73;;
71916;SDS011;59793;46.506;6.674;2023-07-29T07:07:43;6.33;;;4.73;;
71916;SDS011;59793;46.506;6.674;2023-07-29T07:10:09;7.60;;;4.37;;
71916;SDS011;59793;46.506;6.674;2023-07-29T07:12:34;6.30;;;4.67;;
71916;SDS011;59793;46.506;6.674;2023-07-29T07:15:00;8.20;;;4.83;;
71916;SDS011;59793;46.506;6.674;2023-07-29T07:17:26;5.30;;;4.30;;
71916;SDS011;59793;46.506;6.674;2023-07-29T07:19:51;6.33;;;4.27;;
71916;SDS011;59793;46.506;6.674;2023-07-29T07:22:16;8.03;;;4.07;;
71916;SDS011;59793;46.506;6.674;2023-07-29T07:24:42;6.27;;;3.90;;
71916;SDS011;59793;46.506;6.674;2023-07-29T07:27:07;5.33;;;4.07;;
71916;SDS011;59793;46.506;6.674;2023-07-29T07:29:33;5.60;;;3.67;;
71916;SDS011;59793;46.506;6.674;2023-07-29T07:31:58;6.93;;;4.07;;
71916;SDS011;59793;46.506;6.674;2023-07-29T07:34:26;6.18;;;3.85;;
71916;SDS011;59793;46.506;6.674;2023-07-29T07:36:51;4.63;;;3.33;;
71916;SDS011;59793;46.506;6.674;2023-07-29T07:39:17;6.03;;;3.97;;
71916;SDS011;59793;46.506;6.674;2023-07-29T07:41:42;5.73;;;3.97;;
71916;SDS011;59793;46.506;6.674;2023-07-29T07:44:08;9.30;;;4.07;;
71916;SDS011;59793;46.506;6.674;2023-07-29T07:46:33;5.70;;;3.65;;
71916;SDS011;59793;46.506;6.674;2023-07-29T07:48:58;4.97;;;3.97;;
71916;SDS011;59793;46.506;6.674;2023-07-29T07:51:24;4.63;;;3.63;;
71916;SDS011;59793;46.506;6.674;2023-07-29T07:53:49;9.87;;;3.93;;
71916;SDS011;59793;46.506;6.674;2023-07-29T07:56:15;6.20;;;3.90;;
71916;SDS011;59793;46.506;6.674;2023-07-29T07:58:40;7.97;;;4.17;;
71916;SDS011;59793;46.506;6.674;2023-07-29T08:01:06;7.40;;;4.43;;
71916;SDS011;59793;46.506;6.674;2023-07-29T08:03:32;8.50;;;4.07;;
71916;SDS011;59793;46.506;6.674;2023-07-29T08:05:58;8.57;;;3.95;;
71916;SDS011;59793;46.506;6.674;2023-07-29T08:08:24;8.05;;;4.03;;
71916;SDS011;59793;46.506;6.674;2023-07-29T08:10:52;6.28;;;4.40;;
71916;SDS011;59793;46.506;6.674;2023-07-29T08:13:18;7.55;;;4.43;;
71916;SDS011;59793;46.506;6.674;2023-07-29T08:15:47;8.03;;;3.90;;
71916;SDS011;59793;46.506;6.674;2023-07-29T08:18:14;9.20;;;4.10;;
71916;SDS011;59793;46.506;6.674;2023-07-29T08:20:40;5.10;;;4.35;;
71916;SDS011;59793;46.506;6.674;2023-07-29T08:23:06;5.57;;;3.90;;
71916;SDS011;59793;46.506;6.674;2023-07-29T08:25:31;6.33;;;4.27;;
71916;SDS011;59793;46.506;6.674;2023-07-29T08:27:56;7.27;;;4.20;;
71916;SDS011;59793;46.506;6.674;2023-07-29T08:30:22;4.83;;;3.97;;
71916;SDS011;59793;46.506;6.674;2023-07-29T08:32:47;10.07;;;4.70;;
71916;SDS011;59793;46.506;6.674;2023-07-29T08:35:12;9.23;;;4.67;;
71916;SDS011;59793;46.506;6.674;2023-07-29T08:37:38;4.73;;;3.43;;
71916;SDS011;59793;46.506;6.674;2023-07-29T08:40:03;10.23;;;4.93;;
71916;SDS011;59793;46.506;6.674;2023-07-29T08:42:31;10.65;;;5.10;;
71916;SDS011;59793;46.506;6.674;2023-07-29T08:44:57;6.20;;;4.47;;
71916;SDS011;59793;46.506;6.674;2023-07-29T08:47:31;6.63;;;4.32;;
71916;SDS011;59793;46.506;6.674;2023-07-29T08:49:56;5.33;;;4.40;;
71916;SDS011;59793;46.506;6.674;2023-07-29T08:52:23;4.90;;;3.80;;
71916;SDS011;59793;46.506;6.674;2023-07-29T08:54:49;10.48;;;5.22;;
71916;SDS011;59793;46.506;6.674;2023-07-29T08:57:16;10.18;;;4.10;;
71916;SDS011;59793;46.506;6.674;2023-07-29T08:59:42;5.35;;;3.90;;
71916;SDS011;59793;46.506;6.674;2023-07-29T09:02:07;5.47;;;3.93;;
71916;SDS011;59793;46.506;6.674;2023-07-29T09:04:33;7.60;;;4.00;;
71916;SDS011;59793;46.506;6.674;2023-07-29T09:06:58;5.50;;;4.20;;
71916;SDS011;59793;46.506;6.674;2023-07-29T09:09:25;13.68;;;5.32;;
71916;SDS011;59793;46.506;6.674;2023-07-29T09:11:50;8.93;;;5.60;;
71916;SDS011;59793;46.506;6.674;2023-07-29T09:14:16;10.57;;;4.43;;
71916;SDS011;59793;46.506;6.674;2023-07-29T09:16:41;5.60;;;4.03;;
71916;SDS011;59793;46.506;6.674;2023-07-29T09:19:07;5.37;;;4.17;;
71916;SDS011;59793;46.506;6.674;2023-07-29T09:21:32;6.03;;;3.97;;
71916;SDS011;59793;46.506;6.674;2023-07-29T09:23:58;5.20;;;3.80;;
71916;SDS011;59793;46.506;6.674;2023-07-29T09:26:27;6.97;;;4.30;;
71916;SDS011;59793;46.506;6.674;2023-07-29T09:28:57;6.78;;;4.30;;
71916;SDS011;59793;46.506;6.674;2023-07-29T09:31:27;8.77;;;4.53;;
71916;SDS011;59793;46.506;6.674;2023-07-29T09:34:00;6.55;;;4.40;;
71916;SDS011;59793;46.506;6.674;2023-07-29T09:36:29;5.65;;;4.50;;
71916;SDS011;59793;46.506;6.674;2023-07-29T09:38:56;5.45;;;4.57;;
71916;SDS011;59793;46.506;6.674;2023-07-29T09:41:28;10.52;;;4.72;;
71916;SDS011;59793;46.506;6.674;2023-07-29T09:43:57;6.30;;;4.60;;
71916;SDS011;59793;46.506;6.674;2023-07-29T09:46:24;5.43;;;4.10;;
71916;SDS011;59793;46.506;6.674;2023-07-29T09:48:56;6.70;;;4.57;;
71916;SDS011;59793;46.506;6.674;2023-07-29T09:51:21;4.50;;;3.60;;
71916;SDS011;59793;46.506;6.674;2023-07-29T09:53:47;6.23;;;4.30;;
71916;SDS011;59793;46.506;6.674;2023-07-29T09:56:13;7.78;;;4.05;;
71916;SDS011;59793;46.506;6.674;2023-07-29T09:58:39;5.97;;;3.60;;
71916;SDS011;59793;46.506;6.674;2023-07-29T10:01:08;6.15;;;4.03;;
71916;SDS011;59793;46.506;6.674;2023-07-29T10:03:34;8.70;;;4.85;;
71916;SDS011;59793;46.506;6.674;2023-07-29T10:06:01;6.80;;;3.67;;
71916;SDS011;59793;46.506;6.674;2023-07-29T10:08:29;5.65;;;4.15;;
71916;SDS011;59793;46.506;6.674;2023-07-29T10:10:55;7.20;;;4.72;;
71916;SDS011;59793;46.506;6.674;2023-07-29T10:13:21;7.30;;;4.60;;
71916;SDS011;59793;46.506;6.674;2023-07-29T10:15:46;5.67;;;4.27;;
71916;SDS011;59793;46.506;6.674;2023-07-29T10:18:13;7.78;;;4.43;;
71916;SDS011;59793;46.506;6.674;2023-07-29T10:20:41;5.97;;;4.43;;
71916;SDS011;59793;46.506;6.674;2023-07-29T10:23:08;8.15;;;4.38;;
71916;SDS011;59793;46.506;6.674;2023-07-29T10:25:37;6.57;;;4.60;;
71916;SDS011;59793;46.506;6.674;2023-07-29T10:28:05;5.85;;;4.25;;
71916;SDS011;59793;46.506;6.674;2023-07-29T10:30:31;5.78;;;3.80;;
71916;SDS011;59793;46.506;6.674;2023-07-29T10:32:58;11.50;;;4.38;;
71916;SDS011;59793;46.506;6.674;2023-07-29T10:35:26;6.03;;;4.30;;
71916;SDS011;59793;46.506;6.674;2023-07-29T10:37:52;6.97;;;4.80;;
71916;SDS011;59793;46.506;6.674;2023-07-29T10:40:18;6.70;;;4.43;;
71916;SDS011;59793;46.506;6.674;2023-07-29T10:43:18;9.18;;;4.28;;
71916;SDS011;59793;46.506;6.674;2023-07-29T10:45:37;7.15;;;3.92;;
71916;SDS011;59793;46.506;6.674;2023-07-29T10:48:39;5.55;;;4.45;;
71916;SDS011;59793;46.506;6.674;2023-07-29T10:54:04;6.43;;;4.22;;
71916;SDS011;59793;46.506;6.674;2023-07-29T10:56:37;6.18;;;4.40;;
71916;SDS011;59793;46.506;6.674;2023-07-29T11:01:38;5.45;;;4.10;;
71916;SDS011;59793;46.506;6.674;2023-07-29T11:15:00;5.30;;;4.00;;
71916;SDS011;59793;46.506;6.674;2023-07-29T11:17:29;6.45;;;4.20;;
71916;SDS011;59793;46.506;6.674;2023-07-29T11:19:59;8.23;;;4.30;;
71916;SDS011;59793;46.506;6.674;2023-07-29T11:22:25;7.22;;;3.88;;
71916;SDS011;59793;46.506;6.674;2023-07-29T11:24:51;6.83;;;3.97;;
71916;SDS011;59793;46.506;6.674;2023-07-29T11:27:16;5.33;;;3.63;;
71916;SDS011;59793;46.506;6.674;2023-07-29T11:29:41;7.83;;;4.03;;
71916;SDS011;59793;46.506;6.674;2023-07-29T11:32:07;7.47;;;4.47;;
71916;SDS011;59793;46.506;6.674;2023-07-29T11:34:34;8.48;;;4.65;;
71916;SDS011;59793;46.506;6.674;2023-07-29T11:36:59;5.43;;;3.97;;
71916;SDS011;59793;46.506;6.674;2023-07-29T11:39:25;5.67;;;3.87;;
71916;SDS011;59793;46.506;6.674;2023-07-29T11:41:50;6.07;;;3.93;;
71916;SDS011;59793;46.506;6.674;2023-07-29T11:44:18;5.87;;;4.20;;
71916;SDS011;59793;46.506;6.674;2023-07-29T11:46:44;5.47;;;3.92;;
71916;SDS011;59793;46.506;6.674;2023-07-29T11:49:09;5.27;;;3.83;;
71916;SDS011;59793;46.506;6.674;2023-07-29T11:51:35;5.28;;;4.13;;
71916;SDS011;59793;46.506;6.674;2023-07-29T11:54:01;7.47;;;4.43;;
71916;SDS011;59793;46.506;6.674;2023-07-29T11:56:27;5.73;;;4.50;;
71916;SDS011;59793;46.506;6.674;2023-07-29T11:58:53;7.80;;;4.95;;
71916;SDS011;59793;46.506;6.674;2023-07-29T12:03:47;5.68;;;4.45;;
71916;SDS011;59793;46.506;6.674;2023-07-29T12:06:13;4.97;;;3.95;;
71916;SDS011;59793;46.506;6.674;2023-07-29T12:08:38;7.28;;;4.50;;
71916;SDS011;59793;46.506;6.674;2023-07-29T12:11:04;6.20;;;4.37;;
71916;SDS011;59793;46.506;6.674;2023-07-29T12:13:29;7.47;;;4.20;;
71916;SDS011;59793;46.506;6.674;2023-07-29T12:16:00;7.00;;;4.70;;
71916;SDS011;59793;46.506;6.674;2023-07-29T12:18:30;7.90;;;4.07;;
71916;SDS011;59793;46.506;6.674;2023-07-29T12:20:57;8.68;;;4.22;;
71916;SDS011;59793;46.506;6.674;2023-07-29T12:23:25;6.50;;;4.70;;
71916;SDS011;59793;46.506;6.674;2023-07-29T12:25:57;5.90;;;4.30;;
71916;SDS011;59793;46.506;6.674;2023-07-29T12:28:24;7.55;;;5.20;;
71916;SDS011;59793;46.506;6.674;2023-07-29T12:30:53;6.82;;;4.72;;
71916;SDS011;59793;46.506;6.674;2023-07-29T12:33:32;9.05;;;4.60;;
71916;SDS011;59793;46.506;6.674;2023-07-29T12:35:59;10.55;;;4.50;;
71916;SDS011;59793;46.506;6.674;2023-07-29T12:38:28;7.70;;;4.80;;
71916;SDS011;59793;46.506;6.674;2023-07-29T12:40:54;5.00;;;4.13;;
71916;SDS011;59793;46.506;6.674;2023-07-29T12:45:46;6.72;;;4.88;;
71916;SDS011;59793;46.506;6.674;2023-07-29T12:48:11;7.63;;;4.03;;
71916;SDS011;59793;46.506;6.674;2023-07-29T12:50:37;11.50;;;4.97;;
71916;SDS011;59793;46.506;6.674;2023-07-29T12:53:04;6.90;;;4.72;;
71916;SDS011;59793;46.506;6.674;2023-07-29T12:55:30;6.68;;;4.20;;
71916;SDS011;59793;46.506;6.674;2023-07-29T12:57:55;5.93;;;4.30;;
71916;SDS011;59793;46.506;6.674;2023-07-29T13:00:20;5.33;;;3.87;;
71916;SDS011;59793;46.506;6.674;2023-07-29T13:02:46;7.83;;;4.73;;
71916;SDS011;59793;46.506;6.674;2023-07-29T13:05:11;8.60;;;4.07;;
71916;SDS011;59793;46.506;6.674;2023-07-29T13:07:38;7.13;;;4.45;;
71916;SDS011;59793;46.506;6.674;2023-07-29T13:10:04;5.63;;;4.55;;
71916;SDS011;59793;46.506;6.674;2023-07-29T13:12:30;7.07;;;3.97;;
71916;SDS011;59793;46.506;6.674;2023-07-29T13:14:55;3.03;;;2.10;;
71916;SDS011;59793;46.506;6.674;2023-07-29T13:17:21;3.70;;;2.60;;
71916;SDS011;59793;46.506;6.674;2023-07-29T13:19:47;4.00;;;2.97;;
71916;SDS011;59793;46.506;6.674;2023-07-29T13:22:12;3.00;;;2.20;;
71916;SDS011;59793;46.506;6.674;2023-07-29T13:24:38;3.63;;;2.30;;
71916;SDS011;59793;46.506;6.674;2023-07-29T13:27:03;2.80;;;1.90;;
71916;SDS011;59793;46.506;6.674;2023-07-29T13:29:29;3.03;;;1.80;;
71916;SDS011;59793;46.506;6.674;2023-07-29T13:31:54;4.53;;;2.40;;
71916;SDS011;59793;46.506;6.674;2023-07-29T13:34:19;3.70;;;2.20;;
71916;SDS011;59793;46.506;6.674;2023-07-29T13:36:44;6.57;;;2.80;;
71916;SDS011;59793;46.506;6.674;2023-07-29T13:39:10;3.70;;;2.80;;
71916;SDS011;59793;46.506;6.674;2023-07-29T13:41:35;4.67;;;2.60;;
71916;SDS011;59793;46.506;6.674;2023-07-29T13:44:00;4.13;;;3.10;;
71916;SDS011;59793;46.506;6.674;2023-07-29T13:46:26;7.17;;;3.40;;
71916;SDS011;59793;46.506;6.674;2023-07-29T13:48:51;4.43;;;3.30;;
71916;SDS011;59793;46.506;6.674;2023-07-29T13:51:16;5.33;;;3.00;;
71916;SDS011;59793;46.506;6.674;2023-07-29T13:53:42;6.10;;;3.20;;
71916;SDS011;59793;46.506;6.674;2023-07-29T13:56:07;5.93;;;3.07;;
71916;SDS011;59793;46.506;6.674;2023-07-29T13:58:33;6.23;;;3.10;;
71916;SDS011;59793;46.506;6.674;2023-07-29T14:00:58;3.80;;;2.50;;
71916;SDS011;59793;46.506;6.674;2023-07-29T14:03:23;3.17;;;2.40;;
71916;SDS011;59793;46.506;6.674;2023-07-29T14:05:49;7.20;;;3.07;;
71916;SDS011;59793;46.506;6.674;2023-07-29T14:08:14;3.70;;;2.80;;
71916;SDS011;59793;46.506;6.674;2023-07-29T14:10:39;5.53;;;3.17;;
71916;SDS011;59793;46.506;6.674;2023-07-29T14:13:05;4.00;;;2.77;;
71916;SDS011;59793;46.506;6.674;2023-07-29T14:15:30;5.23;;;3.03;;
71916;SDS011;59793;46.506;6.674;2023-07-29T14:17:57;5.95;;;3.10;;
71916;SDS011;59793;46.506;6.674;2023-07-29T14:20:22;4.07;;;2.90;;
71916;SDS011;59793;46.506;6.674;2023-07-29T14:22:48;5.40;;;2.67;;
71916;SDS011;59793;46.506;6.674;2023-07-29T14:25:14;6.40;;;3.30;;
71916;SDS011;59793;46.506;6.674;2023-07-29T14:27:40;6.72;;;3.20;;
71916;SDS011;59793;46.506;6.674;2023-07-29T14:30:05;7.63;;;3.10;;
71916;SDS011;59793;46.506;6.674;2023-07-29T14:34:57;5.88;;;2.85;;
71916;SDS011;59793;46.506;6.674;2023-07-29T14:37:22;4.77;;;3.10;;
71916;SDS011;59793;46.506;6.674;2023-07-29T14:39:47;3.70;;;3.20;;
71916;SDS011;59793;46.506;6.674;2023-07-29T14:42:13;6.20;;;3.13;;
71916;SDS011;59793;46.506;6.674;2023-07-29T14:44:40;3.40;;;2.78;;
71916;SDS011;59793;46.506;6.674;2023-07-29T14:47:06;4.10;;;2.55;;
71916;SDS011;59793;46.506;6.674;2023-07-29T14:49:32;5.78;;;3.50;;
71916;SDS011;59793;46.506;6.674;2023-07-29T14:51:58;5.33;;;2.90;;
71916;SDS011;59793;46.506;6.674;2023-07-29T14:54:23;5.63;;;3.33;;
71916;SDS011;59793;46.506;6.674;2023-07-29T14:56:48;8.03;;;3.40;;
71916;SDS011;59793;46.506;6.674;2023-07-29T14:59:13;7.20;;;3.67;;
71916;SDS011;59793;46.506;6.674;2023-07-29T15:01:39;5.40;;;3.50;;
71916;SDS011;59793;46.506;6.674;2023-07-29T15:04:04;4.83;;;2.73;;
71916;SDS011;59793;46.506;6.674;2023-07-29T15:06:29;6.20;;;3.60;;
71916;SDS011;59793;46.506;6.674;2023-07-29T15:08:55;6.10;;;3.70;;
71916;SDS011;59793;46.506;6.674;2023-07-29T15:11:20;4.17;;;3.03;;
71916;SDS011;59793;46.506;6.674;2023-07-29T15:13:46;5.97;;;3.73;;